Weather Data

Pearl Creek Farm: 8878 N Farm Road 75, Walnut Grove MO 65770

<== Previous Day (Tuesday 15 Aug 2017) | Next Day (Thursday 17 Aug 2017) ==>

Summary Precipitation Data For Wednesday 16 August 2017

ElementValueUnits
Precipitation0.74"
NotesThis rain fell last night well after dark. It was over by this morning.
SourcePearl Creek Farm

Summary Temperature Data For Wednesday 16 August 2017

ElementValueUnits
High Temperature85 oF
Low Temperature68 oF
Average Temperature76 oF
High Humidity100 %
Low Humidity72 %
Average Humidity91 %
SourceSpringfield-Branson National Airport (SGF)

Detail Temperature Data For Wednesday 16 August 2017

Date / TimeTemp (F)RH (%)Dew Pt (F)Report Date / TimeSource
2017-08-16 01:52:00 71 100 71.0 2017-12-29 17:00:26.17417 Springfield-Branson National Airport (SGF)
2017-08-16 13:52:00 75 90 72.0 2017-12-29 17:00:26.17417 Springfield-Branson National Airport (SGF)
2017-08-16 14:52:00 74 97 73.0 2017-12-29 17:00:26.17417 Springfield-Branson National Airport (SGF)
2017-08-16 20:52:00 77 96 76.0 2017-12-29 17:00:26.17417 Springfield-Branson National Airport (SGF)
2017-08-16 21:52:00 68 100 68.0 2017-12-29 17:00:26.17417 Springfield-Branson National Airport (SGF)
2017-08-16 22:52:00 68 96 67.0 2017-12-29 17:00:26.17417 Springfield-Branson National Airport (SGF)
2017-08-16 23:52:00 68 96 67.0 2017-12-29 17:00:26.17417 Springfield-Branson National Airport (SGF)
2017-08-16 00:52:00 75 100 75.0 2017-12-29 17:00:26.17417 Springfield-Branson National Airport (SGF)
2017-08-16 02:52:00 71 100 71.0 2017-12-29 17:00:26.17417 Springfield-Branson National Airport (SGF)
2017-08-16 03:52:00 71 100 71.0 2017-12-29 17:00:26.17417 Springfield-Branson National Airport (SGF)
2017-08-16 04:52:00 72 100 72.0 2017-12-29 17:00:26.17417 Springfield-Branson National Airport (SGF)
2017-08-16 05:52:00 73 96 72.0 2017-12-29 17:00:26.17417 Springfield-Branson National Airport (SGF)
2017-08-16 06:52:00 73 96 72.0 2017-12-29 17:00:26.17417 Springfield-Branson National Airport (SGF)
2017-08-16 07:52:00 76 94 74.0 2017-12-29 17:00:26.17417 Springfield-Branson National Airport (SGF)
2017-08-16 08:52:00 79 88 75.0 2017-12-29 17:00:26.17417 Springfield-Branson National Airport (SGF)
2017-08-16 09:52:00 83 79 76.0 2017-12-29 17:00:26.17417 Springfield-Branson National Airport (SGF)
2017-08-16 10:52:00 83 77 75.0 2017-12-29 17:00:26.17417 Springfield-Branson National Airport (SGF)
2017-08-16 11:52:00 85 72 75.0 2017-12-29 17:00:26.17417 Springfield-Branson National Airport (SGF)
2017-08-16 12:52:00 84 72 74.0 2017-12-29 17:00:26.17417 Springfield-Branson National Airport (SGF)
2017-08-16 15:52:00 77 96 76.0 2017-12-29 17:00:26.17417 Springfield-Branson National Airport (SGF)
2017-08-16 16:52:00 81 85 76.0 2017-12-29 17:00:26.17417 Springfield-Branson National Airport (SGF)
2017-08-16 17:52:00 81 79 74.0 2017-12-29 17:00:26.17417 Springfield-Branson National Airport (SGF)
2017-08-16 18:52:00 78 87 74.0 2017-12-29 17:00:26.17417 Springfield-Branson National Airport (SGF)
2017-08-16 19:52:00 78 90 75.0 2017-12-29 17:00:26.17417 Springfield-Branson National Airport (SGF)

A total of 24 rows are displayed.